sensor_id;sensor_type;location;lat;lon;timestamp;P1;durP1;ratioP1;P2;durP2;ratioP2
69185;SDS011;56298;49.246;9.410;2022-10-31T00:02:04;12.50;;;5.47;;
69185;SDS011;56298;49.246;9.410;2022-10-31T00:04:29;11.00;;;5.13;;
69185;SDS011;56298;49.246;9.410;2022-10-31T00:06:55;10.53;;;5.70;;
69185;SDS011;56298;49.246;9.410;2022-10-31T00:09:20;11.07;;;6.07;;
69185;SDS011;56298;49.246;9.410;2022-10-31T00:11:45;13.67;;;5.97;;
69185;SDS011;56298;49.246;9.410;2022-10-31T00:14:10;11.60;;;6.00;;
69185;SDS011;56298;49.246;9.410;2022-10-31T00:16:36;11.83;;;6.07;;
69185;SDS011;56298;49.246;9.410;2022-10-31T00:19:02;13.60;;;5.73;;
69185;SDS011;56298;49.246;9.410;2022-10-31T00:21:29;14.65;;;6.45;;
69185;SDS011;56298;49.246;9.410;2022-10-31T00:23:55;13.35;;;6.07;;
69185;SDS011;56298;49.246;9.410;2022-10-31T00:26:21;15.63;;;6.60;;
69185;SDS011;56298;49.246;9.410;2022-10-31T00:28:46;14.27;;;6.43;;
69185;SDS011;56298;49.246;9.410;2022-10-31T00:31:12;13.07;;;6.65;;
69185;SDS011;56298;49.246;9.410;2022-10-31T00:33:39;14.17;;;6.80;;
69185;SDS011;56298;49.246;9.410;2022-10-31T00:36:05;13.77;;;6.93;;
69185;SDS011;56298;49.246;9.410;2022-10-31T00:38:31;14.60;;;6.50;;
69185;SDS011;56298;49.246;9.410;2022-10-31T00:40:57;12.43;;;6.70;;
69185;SDS011;56298;49.246;9.410;2022-10-31T00:43:22;14.07;;;6.90;;
69185;SDS011;56298;49.246;9.410;2022-10-31T00:45:47;13.47;;;6.60;;
69185;SDS011;56298;49.246;9.410;2022-10-31T00:48:13;15.57;;;6.88;;
69185;SDS011;56298;49.246;9.410;2022-10-31T00:50:38;13.80;;;6.83;;
69185;SDS011;56298;49.246;9.410;2022-10-31T00:53:04;16.23;;;6.40;;
69185;SDS011;56298;49.246;9.410;2022-10-31T00:55:30;13.83;;;6.30;;
69185;SDS011;56298;49.246;9.410;2022-10-31T00:57:55;14.57;;;6.70;;
69185;SDS011;56298;49.246;9.410;2022-10-31T01:00:20;12.33;;;6.30;;
69185;SDS011;56298;49.246;9.410;2022-10-31T01:02:46;12.83;;;5.97;;
69185;SDS011;56298;49.246;9.410;2022-10-31T01:05:11;11.70;;;6.20;;
69185;SDS011;56298;49.246;9.410;2022-10-31T01:07:37;10.47;;;6.40;;
69185;SDS011;56298;49.246;9.410;2022-10-31T01:10:03;11.13;;;6.18;;
69185;SDS011;56298;49.246;9.410;2022-10-31T01:12:29;14.02;;;6.65;;
69185;SDS011;56298;49.246;9.410;2022-10-31T01:14:55;11.80;;;6.20;;
69185;SDS011;56298;49.246;9.410;2022-10-31T01:17:20;13.13;;;6.33;;
69185;SDS011;56298;49.246;9.410;2022-10-31T01:19:45;13.20;;;6.40;;
69185;SDS011;56298;49.246;9.410;2022-10-31T01:22:10;13.07;;;6.30;;
69185;SDS011;56298;49.246;9.410;2022-10-31T01:24:36;13.20;;;6.50;;
69185;SDS011;56298;49.246;9.410;2022-10-31T01:27:01;12.97;;;6.63;;
69185;SDS011;56298;49.246;9.410;2022-10-31T01:29:27;12.90;;;6.38;;
69185;SDS011;56298;49.246;9.410;2022-10-31T01:31:52;15.00;;;6.70;;
69185;SDS011;56298;49.246;9.410;2022-10-31T01:34:17;13.88;;;6.53;;
69185;SDS011;56298;49.246;9.410;2022-10-31T01:36:43;13.33;;;6.20;;
69185;SDS011;56298;49.246;9.410;2022-10-31T01:39:12;13.65;;;6.60;;
69185;SDS011;56298;49.246;9.410;2022-10-31T01:41:44;11.90;;;6.78;;
69185;SDS011;56298;49.246;9.410;2022-10-31T01:49:38;13.43;;;6.80;;
69185;SDS011;56298;49.246;9.410;2022-10-31T01:55:07;13.30;;;6.70;;
69185;SDS011;56298;49.246;9.410;2022-10-31T01:57:37;11.02;;;6.80;;
69185;SDS011;56298;49.246;9.410;2022-10-31T02:00:06;12.13;;;6.20;;
69185;SDS011;56298;49.246;9.410;2022-10-31T02:02:33;12.40;;;6.13;;
69185;SDS011;56298;49.246;9.410;2022-10-31T02:05:00;11.77;;;6.53;;
69185;SDS011;56298;49.246;9.410;2022-10-31T02:07:39;14.45;;;6.68;;
69185;SDS011;56298;49.246;9.410;2022-10-31T02:10:10;13.60;;;6.40;;
69185;SDS011;56298;49.246;9.410;2022-10-31T02:12:36;12.87;;;6.77;;
69185;SDS011;56298;49.246;9.410;2022-10-31T02:15:02;12.38;;;6.10;;
69185;SDS011;56298;49.246;9.410;2022-10-31T02:17:29;12.10;;;7.00;;
69185;SDS011;56298;49.246;9.410;2022-10-31T02:33:47;13.25;;;6.20;;
69185;SDS011;56298;49.246;9.410;2022-10-31T02:36:21;11.38;;;6.00;;
69185;SDS011;56298;49.246;9.410;2022-10-31T02:41:19;9.50;;;5.73;;
69185;SDS011;56298;49.246;9.410;2022-10-31T02:46:28;13.93;;;6.03;;
69185;SDS011;56298;49.246;9.410;2022-10-31T02:49:00;12.45;;;6.00;;
69185;SDS011;56298;49.246;9.410;2022-10-31T02:51:32;11.07;;;6.05;;
69185;SDS011;56298;49.246;9.410;2022-10-31T02:53:58;13.23;;;6.20;;
69185;SDS011;56298;49.246;9.410;2022-10-31T02:56:23;12.60;;;6.20;;
69185;SDS011;56298;49.246;9.410;2022-10-31T03:01:39;14.40;;;6.50;;
69185;SDS011;56298;49.246;9.410;2022-10-31T03:09:27;12.52;;;6.30;;
69185;SDS011;56298;49.246;9.410;2022-10-31T03:14:41;14.07;;;6.10;;
69185;SDS011;56298;49.246;9.410;2022-10-31T03:17:15;11.55;;;6.00;;
69185;SDS011;56298;49.246;9.410;2022-10-31T03:19:48;10.07;;;6.10;;
69185;SDS011;56298;49.246;9.410;2022-10-31T03:22:23;12.93;;;6.32;;
69185;SDS011;56298;49.246;9.410;2022-10-31T03:24:52;13.63;;;5.95;;
69185;SDS011;56298;49.246;9.410;2022-10-31T03:27:20;13.15;;;6.07;;
69185;SDS011;56298;49.246;9.410;2022-10-31T03:29:49;12.88;;;6.30;;
69185;SDS011;56298;49.246;9.410;2022-10-31T03:32:17;14.35;;;6.15;;
69185;SDS011;56298;49.246;9.410;2022-10-31T03:34:47;13.10;;;6.00;;
69185;SDS011;56298;49.246;9.410;2022-10-31T03:37:16;13.02;;;5.90;;
69185;SDS011;56298;49.246;9.410;2022-10-31T03:39:43;10.87;;;6.30;;
69185;SDS011;56298;49.246;9.410;2022-10-31T03:42:13;11.10;;;5.82;;
69185;SDS011;56298;49.246;9.410;2022-10-31T03:44:41;11.27;;;6.00;;
69185;SDS011;56298;49.246;9.410;2022-10-31T03:47:09;13.15;;;6.03;;
69185;SDS011;56298;49.246;9.410;2022-10-31T03:49:34;13.63;;;6.43;;
69185;SDS011;56298;49.246;9.410;2022-10-31T03:52:13;13.23;;;5.90;;
69185;SDS011;56298;49.246;9.410;2022-10-31T03:54:59;12.63;;;6.22;;
69185;SDS011;56298;49.246;9.410;2022-10-31T04:00:41;10.80;;;5.80;;
69185;SDS011;56298;49.246;9.410;2022-10-31T04:03:10;12.30;;;6.03;;
69185;SDS011;56298;49.246;9.410;2022-10-31T04:05:39;12.27;;;5.97;;
69185;SDS011;56298;49.246;9.410;2022-10-31T04:08:08;10.68;;;6.07;;
69185;SDS011;56298;49.246;9.410;2022-10-31T04:10:37;11.98;;;6.35;;
69185;SDS011;56298;49.246;9.410;2022-10-31T04:13:07;14.77;;;6.22;;
69185;SDS011;56298;49.246;9.410;2022-10-31T04:15:34;12.82;;;6.20;;
69185;SDS011;56298;49.246;9.410;2022-10-31T04:18:01;13.63;;;6.20;;
69185;SDS011;56298;49.246;9.410;2022-10-31T04:20:33;13.27;;;6.57;;
69185;SDS011;56298;49.246;9.410;2022-10-31T04:23:00;12.52;;;6.60;;
69185;SDS011;56298;49.246;9.410;2022-10-31T04:25:26;12.45;;;6.25;;
69185;SDS011;56298;49.246;9.410;2022-10-31T04:27:51;11.63;;;6.33;;
69185;SDS011;56298;49.246;9.410;2022-10-31T04:30:17;12.77;;;6.60;;
69185;SDS011;56298;49.246;9.410;2022-10-31T04:32:42;12.03;;;6.70;;
69185;SDS011;56298;49.246;9.410;2022-10-31T04:35:07;14.63;;;6.97;;
69185;SDS011;56298;49.246;9.410;2022-10-31T04:37:33;12.37;;;6.83;;
69185;SDS011;56298;49.246;9.410;2022-10-31T04:39:58;12.37;;;6.97;;
69185;SDS011;56298;49.246;9.410;2022-10-31T04:42:23;12.30;;;7.10;;
69185;SDS011;56298;49.246;9.410;2022-10-31T04:44:49;14.20;;;7.07;;
69185;SDS011;56298;49.246;9.410;2022-10-31T04:47:14;13.87;;;7.00;;
69185;SDS011;56298;49.246;9.410;2022-10-31T04:49:39;17.07;;;6.97;;
69185;SDS011;56298;49.246;9.410;2022-10-31T04:52:04;14.48;;;6.78;;
69185;SDS011;56298;49.246;9.410;2022-10-31T04:54:30;14.33;;;6.73;;
69185;SDS011;56298;49.246;9.410;2022-10-31T04:56:55;15.20;;;6.87;;
69185;SDS011;56298;49.246;9.410;2022-10-31T04:59:20;12.00;;;6.77;;
69185;SDS011;56298;49.246;9.410;2022-10-31T05:01:45;14.23;;;7.23;;
69185;SDS011;56298;49.246;9.410;2022-10-31T05:04:11;13.60;;;6.67;;
69185;SDS011;56298;49.246;9.410;2022-10-31T05:06:36;12.97;;;6.70;;
69185;SDS011;56298;49.246;9.410;2022-10-31T05:09:01;12.53;;;6.70;;
69185;SDS011;56298;49.246;9.410;2022-10-31T05:11:27;14.02;;;6.70;;
69185;SDS011;56298;49.246;9.410;2022-10-31T05:13:52;11.37;;;6.27;;
69185;SDS011;56298;49.246;9.410;2022-10-31T05:16:17;12.90;;;6.50;;
69185;SDS011;56298;49.246;9.410;2022-10-31T05:18:42;11.97;;;6.43;;
69185;SDS011;56298;49.246;9.410;2022-10-31T05:21:08;13.33;;;6.87;;
69185;SDS011;56298;49.246;9.410;2022-10-31T05:23:33;11.47;;;6.37;;
69185;SDS011;56298;49.246;9.410;2022-10-31T05:25:58;10.83;;;6.30;;
69185;SDS011;56298;49.246;9.410;2022-10-31T05:28:23;10.43;;;6.57;;
69185;SDS011;56298;49.246;9.410;2022-10-31T05:30:49;13.20;;;6.43;;
69185;SDS011;56298;49.246;9.410;2022-10-31T05:33:14;12.80;;;6.30;;
69185;SDS011;56298;49.246;9.410;2022-10-31T05:35:39;14.37;;;6.77;;
69185;SDS011;56298;49.246;9.410;2022-10-31T05:38:05;15.40;;;7.10;;
69185;SDS011;56298;49.246;9.410;2022-10-31T05:40:30;12.23;;;6.53;;
69185;SDS011;56298;49.246;9.410;2022-10-31T05:42:55;13.43;;;6.40;;
69185;SDS011;56298;49.246;9.410;2022-10-31T05:45:24;12.93;;;6.72;;
69185;SDS011;56298;49.246;9.410;2022-10-31T05:48:00;17.52;;;6.72;;
69185;SDS011;56298;49.246;9.410;2022-10-31T05:50:27;12.25;;;7.10;;
69185;SDS011;56298;49.246;9.410;2022-10-31T05:52:57;13.57;;;7.13;;
69185;SDS011;56298;49.246;9.410;2022-10-31T05:55:29;14.43;;;7.00;;
69185;SDS011;56298;49.246;9.410;2022-10-31T05:57:56;13.30;;;6.93;;
69185;SDS011;56298;49.246;9.410;2022-10-31T06:00:21;14.98;;;6.97;;
69185;SDS011;56298;49.246;9.410;2022-10-31T06:02:48;11.32;;;6.20;;
69185;SDS011;56298;49.246;9.410;2022-10-31T06:05:13;10.85;;;5.72;;
69185;SDS011;56298;49.246;9.410;2022-10-31T06:07:39;12.45;;;6.00;;
69185;SDS011;56298;49.246;9.410;2022-10-31T06:10:05;12.83;;;6.27;;
69185;SDS011;56298;49.246;9.410;2022-10-31T06:12:32;12.52;;;7.20;;
69185;SDS011;56298;49.246;9.410;2022-10-31T06:15:02;12.48;;;7.15;;
69185;SDS011;56298;49.246;9.410;2022-10-31T06:17:29;14.13;;;7.43;;
69185;SDS011;56298;49.246;9.410;2022-10-31T06:19:54;15.17;;;8.03;;
69185;SDS011;56298;49.246;9.410;2022-10-31T06:22:19;14.67;;;8.13;;
69185;SDS011;56298;49.246;9.410;2022-10-31T06:24:45;13.70;;;7.80;;
69185;SDS011;56298;49.246;9.410;2022-10-31T06:27:10;14.13;;;8.10;;
69185;SDS011;56298;49.246;9.410;2022-10-31T06:29:35;12.45;;;6.80;;
69185;SDS011;56298;49.246;9.410;2022-10-31T06:32:00;12.40;;;6.73;;
69185;SDS011;56298;49.246;9.410;2022-10-31T06:34:26;14.00;;;7.00;;
69185;SDS011;56298;49.246;9.410;2022-10-31T06:36:51;12.30;;;6.87;;
69185;SDS011;56298;49.246;9.410;2022-10-31T06:39:16;13.47;;;7.10;;
69185;SDS011;56298;49.246;9.410;2022-10-31T06:41:41;14.30;;;6.93;;
69185;SDS011;56298;49.246;9.410;2022-10-31T06:44:07;11.67;;;6.63;;
69185;SDS011;56298;49.246;9.410;2022-10-31T06:46:32;11.73;;;6.72;;
69185;SDS011;56298;49.246;9.410;2022-10-31T06:48:58;11.47;;;6.07;;
69185;SDS011;56298;49.246;9.410;2022-10-31T06:51:24;12.47;;;6.17;;
69185;SDS011;56298;49.246;9.410;2022-10-31T06:53:49;11.97;;;6.37;;
69185;SDS011;56298;49.246;9.410;2022-10-31T06:56:14;10.50;;;6.13;;
69185;SDS011;56298;49.246;9.410;2022-10-31T06:58:39;12.87;;;5.83;;
69185;SDS011;56298;49.246;9.410;2022-10-31T07:01:05;12.70;;;6.07;;
69185;SDS011;56298;49.246;9.410;2022-10-31T07:03:30;11.87;;;6.07;;
69185;SDS011;56298;49.246;9.410;2022-10-31T07:05:56;12.20;;;6.13;;
69185;SDS011;56298;49.246;9.410;2022-10-31T07:08:21;14.33;;;6.30;;
69185;SDS011;56298;49.246;9.410;2022-10-31T07:10:50;11.13;;;6.23;;
69185;SDS011;56298;49.246;9.410;2022-10-31T07:13:17;12.98;;;6.47;;
69185;SDS011;56298;49.246;9.410;2022-10-31T07:15:43;12.10;;;6.23;;
69185;SDS011;56298;49.246;9.410;2022-10-31T07:18:09;12.77;;;6.40;;
69185;SDS011;56298;49.246;9.410;2022-10-31T07:20:35;11.18;;;6.40;;
69185;SDS011;56298;49.246;9.410;2022-10-31T07:23:01;13.33;;;6.43;;
69185;SDS011;56298;49.246;9.410;2022-10-31T07:25:26;10.10;;;5.93;;
69185;SDS011;56298;49.246;9.410;2022-10-31T07:27:51;11.27;;;6.13;;
69185;SDS011;56298;49.246;9.410;2022-10-31T07:30:17;12.03;;;6.33;;
69185;SDS011;56298;49.246;9.410;2022-10-31T07:32:44;11.60;;;5.95;;
69185;SDS011;56298;49.246;9.410;2022-10-31T07:35:11;10.43;;;5.93;;
69185;SDS011;56298;49.246;9.410;2022-10-31T07:37:38;10.07;;;5.87;;
69185;SDS011;56298;49.246;9.410;2022-10-31T07:40:04;11.20;;;6.00;;
69185;SDS011;56298;49.246;9.410;2022-10-31T07:42:37;14.02;;;5.95;;
69185;SDS011;56298;49.246;9.410;2022-10-31T07:45:04;11.65;;;5.78;;
69185;SDS011;56298;49.246;9.410;2022-10-31T07:47:37;9.83;;;5.70;;
69185;SDS011;56298;49.246;9.410;2022-10-31T07:50:06;10.10;;;5.67;;
69185;SDS011;56298;49.246;9.410;2022-10-31T07:52:32;12.23;;;5.73;;
69185;SDS011;56298;49.246;9.410;2022-10-31T07:54:57;12.17;;;5.70;;
69185;SDS011;56298;49.246;9.410;2022-10-31T07:57:22;12.70;;;5.57;;
69185;SDS011;56298;49.246;9.410;2022-10-31T07:59:48;11.37;;;5.70;;
69185;SDS011;56298;49.246;9.410;2022-10-31T08:02:13;11.07;;;5.50;;
69185;SDS011;56298;49.246;9.410;2022-10-31T08:04:39;11.50;;;5.80;;
69185;SDS011;56298;49.246;9.410;2022-10-31T08:07:04;10.13;;;5.67;;
69185;SDS011;56298;49.246;9.410;2022-10-31T08:09:29;10.10;;;5.80;;
69185;SDS011;56298;49.246;9.410;2022-10-31T08:11:55;12.07;;;5.30;;
69185;SDS011;56298;49.246;9.410;2022-10-31T08:14:20;11.37;;;5.90;;
69185;SDS011;56298;49.246;9.410;2022-10-31T08:16:46;11.40;;;5.47;;
69185;SDS011;56298;49.246;9.410;2022-10-31T08:19:11;12.20;;;5.87;;
69185;SDS011;56298;49.246;9.410;2022-10-31T08:21:36;10.87;;;5.23;;
69185;SDS011;56298;49.246;9.410;2022-10-31T08:24:02;8.60;;;5.17;;
69185;SDS011;56298;49.246;9.410;2022-10-31T08:26:27;14.17;;;5.80;;
69185;SDS011;56298;49.246;9.410;2022-10-31T08:28:52;11.03;;;5.60;;
69185;SDS011;56298;49.246;9.410;2022-10-31T08:31:19;11.40;;;5.80;;
69185;SDS011;56298;49.246;9.410;2022-10-31T08:33:45;9.57;;;5.47;;
69185;SDS011;56298;49.246;9.410;2022-10-31T08:36:10;11.10;;;6.10;;
69185;SDS011;56298;49.246;9.410;2022-10-31T08:38:35;11.80;;;7.10;;
69185;SDS011;56298;49.246;9.410;2022-10-31T08:41:01;13.70;;;7.10;;
69185;SDS011;56298;49.246;9.410;2022-10-31T08:43:26;11.80;;;6.70;;
69185;SDS011;56298;49.246;9.410;2022-10-31T08:45:51;14.73;;;7.13;;
69185;SDS011;56298;49.246;9.410;2022-10-31T08:48:19;12.23;;;7.13;;
69185;SDS011;56298;49.246;9.410;2022-10-31T08:50:44;13.47;;;7.03;;
69185;SDS011;56298;49.246;9.410;2022-10-31T08:53:14;15.18;;;6.60;;
69185;SDS011;56298;49.246;9.410;2022-10-31T08:55:42;12.35;;;6.82;;
69185;SDS011;56298;49.246;9.410;2022-10-31T08:58:12;12.95;;;7.00;;
69185;SDS011;56298;49.246;9.410;2022-10-31T09:00:40;11.95;;;6.68;;
69185;SDS011;56298;49.246;9.410;2022-10-31T09:03:08;11.75;;;6.22;;
69185;SDS011;56298;49.246;9.410;2022-10-31T09:05:37;12.68;;;7.05;;
69185;SDS011;56298;49.246;9.410;2022-10-31T09:08:03;12.25;;;7.30;;
69185;SDS011;56298;49.246;9.410;2022-10-31T09:10:29;13.95;;;6.97;;
69185;SDS011;56298;49.246;9.410;2022-10-31T09:12:57;10.65;;;6.85;;
69185;SDS011;56298;49.246;9.410;2022-10-31T09:15:24;12.98;;;6.70;;
69185;SDS011;56298;49.246;9.410;2022-10-31T09:17:49;13.43;;;6.50;;
69185;SDS011;56298;49.246;9.410;2022-10-31T09:20:15;11.10;;;6.00;;
69185;SDS011;56298;49.246;9.410;2022-10-31T09:22:40;12.63;;;6.80;;
69185;SDS011;56298;49.246;9.410;2022-10-31T09:25:06;11.23;;;5.93;;
69185;SDS011;56298;49.246;9.410;2022-10-31T09:27:31;10.90;;;5.70;;
69185;SDS011;56298;49.246;9.410;2022-10-31T09:29:57;10.50;;;5.70;;
69185;SDS011;56298;49.246;9.410;2022-10-31T09:32:22;11.17;;;5.97;;
69185;SDS011;56298;49.246;9.410;2022-10-31T09:34:47;13.53;;;5.73;;
69185;SDS011;56298;49.246;9.410;2022-10-31T09:37:12;10.20;;;5.50;;
69185;SDS011;56298;49.246;9.410;2022-10-31T09:39:38;11.40;;;5.40;;
69185;SDS011;56298;49.246;9.410;2022-10-31T09:44:53;11.30;;;5.50;;
69185;SDS011;56298;49.246;9.410;2022-10-31T09:47:27;9.73;;;5.20;;
69185;SDS011;56298;49.246;9.410;2022-10-31T09:52:57;10.15;;;5.22;;
69185;SDS011;56298;49.246;9.410;2022-10-31T09:58:16;12.20;;;5.37;;
69185;SDS011;56298;49.246;9.410;2022-10-31T10:00:45;12.63;;;5.68;;
69185;SDS011;56298;49.246;9.410;2022-10-31T10:03:23;11.27;;;5.57;;
69185;SDS011;56298;49.246;9.410;2022-10-31T10:06:12;10.73;;;5.35;;
69185;SDS011;56298;49.246;9.410;2022-10-31T10:08:42;12.85;;;5.70;;
69185;SDS011;56298;49.246;9.410;2022-10-31T10:13:57;11.23;;;5.63;;
69185;SDS011;56298;49.246;9.410;2022-10-31T10:16:58;11.47;;;5.80;;
69185;SDS011;56298;49.246;9.410;2022-10-31T10:22:29;10.05;;;5.45;;
69185;SDS011;56298;49.246;9.410;2022-10-31T10:30:47;13.35;;;7.07;;
69185;SDS011;56298;49.246;9.410;2022-10-31T10:33:46;13.00;;;7.13;;
69185;SDS011;56298;49.246;9.410;2022-10-31T10:36:28;12.57;;;6.90;;
69185;SDS011;56298;49.246;9.410;2022-10-31T10:39:03;11.40;;;6.95;;
69185;SDS011;56298;49.246;9.410;2022-10-31T10:41:33;14.18;;;6.68;;
69185;SDS011;56298;49.246;9.410;2022-10-31T10:43:59;12.53;;;6.70;;
69185;SDS011;56298;49.246;9.410;2022-10-31T10:55:03;12.57;;;6.07;;
69185;SDS011;56298;49.246;9.410;2022-10-31T11:02:56;13.45;;;6.35;;
69185;SDS011;56298;49.246;9.410;2022-10-31T11:05:30;12.60;;;6.80;;
69185;SDS011;56298;49.246;9.410;2022-10-31T11:08:04;12.13;;;6.00;;
69185;SDS011;56298;49.246;9.410;2022-10-31T11:10:30;10.95;;;6.50;;
69185;SDS011;56298;49.246;9.410;2022-10-31T11:15:54;13.45;;;7.18;;
69185;SDS011;56298;49.246;9.410;2022-10-31T11:18:24;13.03;;;6.30;;
69185;SDS011;56298;49.246;9.410;2022-10-31T11:20:53;14.45;;;6.78;;
69185;SDS011;56298;49.246;9.410;2022-10-31T11:23:20;17.70;;;6.77;;
69185;SDS011;56298;49.246;9.410;2022-10-31T11:25:56;13.43;;;6.50;;
69185;SDS011;56298;49.246;9.410;2022-10-31T11:28:24;15.00;;;6.47;;
69185;SDS011;56298;49.246;9.410;2022-10-31T11:30:52;13.98;;;6.90;;
69185;SDS011;56298;49.246;9.410;2022-10-31T11:33:38;13.02;;;7.30;;
69185;SDS011;56298;49.246;9.410;2022-10-31T11:38:48;14.88;;;6.68;;
69185;SDS011;56298;49.246;9.410;2022-10-31T11:41:16;16.17;;;6.85;;
69185;SDS011;56298;49.246;9.410;2022-10-31T11:43:56;13.48;;;6.78;;
69185;SDS011;56298;49.246;9.410;2022-10-31T11:46:39;14.25;;;6.43;;
69185;SDS011;56298;49.246;9.410;2022-10-31T11:49:12;12.93;;;6.27;;
69185;SDS011;56298;49.246;9.410;2022-10-31T11:51:42;13.45;;;5.97;;
69185;SDS011;56298;49.246;9.410;2022-10-31T11:54:21;12.23;;;6.23;;
69185;SDS011;56298;49.246;9.410;2022-10-31T11:56:51;13.65;;;6.85;;
69185;SDS011;56298;49.246;9.410;2022-10-31T11:59:26;13.13;;;7.10;;
69185;SDS011;56298;49.246;9.410;2022-10-31T12:01:54;12.77;;;6.80;;
69185;SDS011;56298;49.246;9.410;2022-10-31T12:04:27;12.50;;;6.60;;
69185;SDS011;56298;49.246;9.410;2022-10-31T12:06:57;12.93;;;7.13;;
69185;SDS011;56298;49.246;9.410;2022-10-31T12:09:29;14.00;;;6.67;;
69185;SDS011;56298;49.246;9.410;2022-10-31T12:17:35;11.52;;;6.65;;
69185;SDS011;56298;49.246;9.410;2022-10-31T12:20:33;13.55;;;6.53;;
69185;SDS011;56298;49.246;9.410;2022-10-31T12:23:17;13.30;;;7.00;;
69185;SDS011;56298;49.246;9.410;2022-10-31T12:25:50;14.95;;;7.43;;
69185;SDS011;56298;49.246;9.410;2022-10-31T12:39:14;14.25;;;6.45;;
69185;SDS011;56298;49.246;9.410;2022-10-31T12:41:52;14.55;;;6.50;;
69185;SDS011;56298;49.246;9.410;2022-10-31T12:44:32;11.73;;;6.38;;
69185;SDS011;56298;49.246;9.410;2022-10-31T12:49:42;14.18;;;6.70;;
69185;SDS011;56298;49.246;9.410;2022-10-31T12:52:37;12.95;;;6.97;;
69185;SDS011;56298;49.246;9.410;2022-10-31T12:55:15;14.00;;;6.70;;
69185;SDS011;56298;49.246;9.410;2022-10-31T12:57:50;13.35;;;7.00;;
69185;SDS011;56298;49.246;9.410;2022-10-31T13:00:19;13.65;;;6.85;;
69185;SDS011;56298;49.246;9.410;2022-10-31T13:02:52;13.57;;;6.83;;
69185;SDS011;56298;49.246;9.410;2022-10-31T13:08:10;14.77;;;7.10;;
69185;SDS011;56298;49.246;9.410;2022-10-31T13:13:43;11.30;;;6.28;;
69185;SDS011;56298;49.246;9.410;2022-10-31T13:16:18;13.63;;;6.70;;
69185;SDS011;56298;49.246;9.410;2022-10-31T13:18:54;13.35;;;6.85;;
69185;SDS011;56298;49.246;9.410;2022-10-31T13:21:27;15.80;;;7.38;;
69185;SDS011;56298;49.246;9.410;2022-10-31T13:24:09;12.75;;;6.45;;
69185;SDS011;56298;49.246;9.410;2022-10-31T13:26:52;14.15;;;6.85;;
69185;SDS011;56298;49.246;9.410;2022-10-31T13:31:53;13.48;;;6.55;;
69185;SDS011;56298;49.246;9.410;2022-10-31T13:39:49;13.63;;;7.07;;
69185;SDS011;56298;49.246;9.410;2022-10-31T13:42:31;12.15;;;6.40;;
69185;SDS011;56298;49.246;9.410;2022-10-31T13:45:11;12.27;;;6.53;;
69185;SDS011;56298;49.246;9.410;2022-10-31T13:47:40;16.00;;;6.85;;
69185;SDS011;56298;49.246;9.410;2022-10-31T13:50:21;13.47;;;6.70;;
69185;SDS011;56298;49.246;9.410;2022-10-31T13:52:47;14.35;;;6.80;;
69185;SDS011;56298;49.246;9.410;2022-10-31T13:58:04;15.27;;;6.53;;
69185;SDS011;56298;49.246;9.410;2022-10-31T14:00:41;12.40;;;6.65;;
69185;SDS011;56298;49.246;9.410;2022-10-31T14:03:16;12.77;;;6.55;;
69185;SDS011;56298;49.246;9.410;2022-10-31T14:05:44;14.60;;;6.72;;
69185;SDS011;56298;49.246;9.410;2022-10-31T14:08:18;14.10;;;7.27;;
69185;SDS011;56298;49.246;9.410;2022-10-31T14:10:48;12.57;;;6.53;;
69185;SDS011;56298;49.246;9.410;2022-10-31T14:13:32;13.65;;;7.32;;
69185;SDS011;56298;49.246;9.410;2022-10-31T14:16:16;13.13;;;7.00;;
69185;SDS011;56298;49.246;9.410;2022-10-31T14:18:50;15.63;;;7.00;;
69185;SDS011;56298;49.246;9.410;2022-10-31T14:23:47;13.77;;;7.77;;
69185;SDS011;56298;49.246;9.410;2022-10-31T14:26:20;14.87;;;8.07;;
69185;SDS011;56298;49.246;9.410;2022-10-31T14:28:57;16.85;;;7.93;;
69185;SDS011;56298;49.246;9.410;2022-10-31T14:31:39;14.30;;;7.68;;
69185;SDS011;56298;49.246;9.410;2022-10-31T14:34:18;15.43;;;7.60;;
69185;SDS011;56298;49.246;9.410;2022-10-31T14:36:56;13.52;;;7.18;;
69185;SDS011;56298;49.246;9.410;2022-10-31T14:42:31;14.10;;;7.47;;
69185;SDS011;56298;49.246;9.410;2022-10-31T14:50:41;12.80;;;6.83;;
69185;SDS011;56298;49.246;9.410;2022-10-31T14:55:52;11.97;;;6.63;;
69185;SDS011;56298;49.246;9.410;2022-10-31T14:58:23;15.18;;;7.28;;
69185;SDS011;56298;49.246;9.410;2022-10-31T15:01:05;11.90;;;7.13;;
69185;SDS011;56298;49.246;9.410;2022-10-31T15:03:32;15.20;;;6.80;;
69185;SDS011;56298;49.246;9.410;2022-10-31T15:06:11;12.10;;;6.93;;
69185;SDS011;56298;49.246;9.410;2022-10-31T15:08:39;13.63;;;6.80;;
69185;SDS011;56298;49.246;9.410;2022-10-31T15:13:49;14.23;;;7.85;;
69185;SDS011;56298;49.246;9.410;2022-10-31T15:16:18;13.77;;;7.90;;
69185;SDS011;56298;49.246;9.410;2022-10-31T15:18:47;14.82;;;7.60;;
69185;SDS011;56298;49.246;9.410;2022-10-31T15:21:18;16.10;;;8.85;;
69185;SDS011;56298;49.246;9.410;2022-10-31T15:23:45;14.68;;;8.70;;
69185;SDS011;56298;49.246;9.410;2022-10-31T15:26:15;14.40;;;8.90;;
69185;SDS011;56298;49.246;9.410;2022-10-31T15:28:43;15.20;;;8.13;;
69185;SDS011;56298;49.246;9.410;2022-10-31T15:31:13;15.77;;;8.77;;
69185;SDS011;56298;49.246;9.410;2022-10-31T15:33:41;15.07;;;8.13;;
69185;SDS011;56298;49.246;9.410;2022-10-31T15:36:18;13.90;;;8.10;;
69185;SDS011;56298;49.246;9.410;2022-10-31T15:38:44;15.07;;;7.63;;
69185;SDS011;56298;49.246;9.410;2022-10-31T15:41:24;15.63;;;8.10;;
69185;SDS011;56298;49.246;9.410;2022-10-31T15:43:50;13.60;;;8.18;;
69185;SDS011;56298;49.246;9.410;2022-10-31T15:46:15;18.30;;;9.03;;
69185;SDS011;56298;49.246;9.410;2022-10-31T15:48:44;15.50;;;9.00;;
69185;SDS011;56298;49.246;9.410;2022-10-31T15:51:11;17.00;;;9.53;;
69185;SDS011;56298;49.246;9.410;2022-10-31T15:56:12;15.10;;;9.25;;
69185;SDS011;56298;49.246;9.410;2022-10-31T15:58:44;15.05;;;8.90;;
69185;SDS011;56298;49.246;9.410;2022-10-31T16:01:20;14.85;;;8.45;;
69185;SDS011;56298;49.246;9.410;2022-10-31T16:03:59;13.13;;;8.23;;
69185;SDS011;56298;49.246;9.410;2022-10-31T16:06:30;17.27;;;9.43;;
69185;SDS011;56298;49.246;9.410;2022-10-31T16:08:57;19.05;;;9.68;;
69185;SDS011;56298;49.246;9.410;2022-10-31T16:11:24;15.10;;;8.80;;
69185;SDS011;56298;49.246;9.410;2022-10-31T16:14:07;13.48;;;8.77;;
69185;SDS011;56298;49.246;9.410;2022-10-31T16:16:48;14.57;;;8.35;;
69185;SDS011;56298;49.246;9.410;2022-10-31T16:19:24;14.07;;;8.60;;
69185;SDS011;56298;49.246;9.410;2022-10-31T16:21:54;14.88;;;8.18;;
69185;SDS011;56298;49.246;9.410;2022-10-31T16:24:30;16.52;;;8.60;;
69185;SDS011;56298;49.246;9.410;2022-10-31T16:27:00;15.57;;;9.10;;
69185;SDS011;56298;49.246;9.410;2022-10-31T16:29:45;18.23;;;8.95;;
69185;SDS011;56298;49.246;9.410;2022-10-31T16:32:24;19.38;;;13.02;;
69185;SDS011;56298;49.246;9.410;2022-10-31T16:35:45;20.63;;;12.30;;
69185;SDS011;56298;49.246;9.410;2022-10-31T16:37:51;21.50;;;11.93;;
69185;SDS011;56298;49.246;9.410;2022-10-31T16:40:17;16.13;;;9.57;;
69185;SDS011;56298;49.246;9.410;2022-10-31T16:42:43;14.70;;;8.00;;
69185;SDS011;56298;49.246;9.410;2022-10-31T16:45:17;16.65;;;8.80;;
69185;SDS011;56298;49.246;9.410;2022-10-31T16:47:44;12.82;;;8.45;;
69185;SDS011;56298;49.246;9.410;2022-10-31T16:50:17;17.83;;;9.50;;
69185;SDS011;56298;49.246;9.410;2022-10-31T16:52:45;15.48;;;9.32;;
69185;SDS011;56298;49.246;9.410;2022-10-31T16:55:12;16.40;;;9.80;;
69185;SDS011;56298;49.246;9.410;2022-10-31T16:57:40;17.90;;;10.87;;
69185;SDS011;56298;49.246;9.410;2022-10-31T17:00:09;21.60;;;11.88;;
69185;SDS011;56298;49.246;9.410;2022-10-31T17:02:38;20.43;;;12.93;;